createdAt,value
2023-03-18T00:00:19.269Z,8.28
2023-03-18T00:02:46.719Z,8.30
2023-03-18T00:05:13.866Z,8.30
2023-03-18T00:07:41.798Z,8.38
2023-03-18T00:10:10.448Z,8.24
2023-03-18T00:12:41.123Z,8.25
2023-03-18T00:15:09.907Z,8.18
2023-03-18T00:17:38.011Z,8.17
2023-03-18T00:20:07.104Z,8.04
2023-03-18T00:22:35.019Z,8.05
2023-03-18T00:25:02.593Z,8.07
2023-03-18T00:27:29.353Z,8.08
2023-03-18T00:29:56.364Z,8.04
2023-03-18T00:32:23.446Z,8.15
2023-03-18T00:34:51.002Z,8.09
2023-03-18T00:37:30.342Z,8.18
2023-03-18T00:39:59.864Z,7.98
2023-03-18T00:42:26.516Z,8.00
2023-03-18T00:44:53.189Z,8.04
2023-03-18T00:47:19.859Z,7.98
2023-03-18T00:49:47.496Z,7.95
2023-03-18T00:52:14.755Z,7.92
2023-03-18T00:54:41.978Z,7.91
2023-03-18T00:57:08.798Z,7.76
2023-03-18T00:59:35.744Z,7.88
2023-03-18T01:02:02.826Z,7.81
2023-03-18T01:04:29.567Z,7.85
2023-03-18T01:06:56.394Z,7.83
2023-03-18T01:09:23.794Z,7.86
2023-03-18T01:11:50.527Z,7.90
2023-03-18T01:14:17.218Z,7.82
2023-03-18T01:16:43.915Z,7.80
2023-03-18T01:19:10.863Z,7.89
2023-03-18T01:21:38.012Z,7.83
2023-03-18T01:24:05.078Z,7.94
2023-03-18T01:26:32.120Z,7.92
2023-03-18T01:28:59.668Z,7.99
2023-03-18T01:31:26.389Z,7.87
2023-03-18T01:33:53.313Z,7.83
2023-03-18T01:36:19.979Z,7.75
2023-03-18T01:38:47.124Z,7.82
2023-03-18T01:41:14.599Z,7.57
2023-03-18T01:43:43.029Z,7.60
2023-03-18T01:46:33.987Z,7.68
2023-03-18T01:49:04.094Z,7.80
2023-03-18T01:51:31.360Z,7.92
2023-03-18T01:54:00.590Z,7.89
2023-03-18T01:56:28.008Z,7.96
2023-03-18T01:58:56.062Z,7.95
2023-03-18T02:01:34.030Z,7.95
2023-03-18T02:04:02.814Z,7.92
2023-03-18T02:06:29.685Z,7.87
2023-03-18T02:08:56.907Z,7.87
2023-03-18T02:13:50.336Z,7.93
2023-03-18T02:16:27.515Z,7.92
2023-03-18T02:19:02.308Z,8.00
2023-03-18T02:21:33.866Z,8.03
2023-03-18T02:24:19.805Z,8.02
2023-03-18T02:27:17.362Z,7.94
2023-03-18T02:29:44.666Z,7.88
2023-03-18T02:32:11.697Z,7.97
2023-03-18T02:34:38.689Z,7.96
2023-03-18T02:37:08.156Z,7.99
2023-03-18T02:39:35.859Z,8.01
2023-03-18T02:42:02.977Z,7.96
2023-03-18T02:44:29.805Z,7.98
2023-03-18T02:47:04.245Z,8.08
2023-03-18T02:49:31.245Z,8.07
2023-03-18T02:51:57.878Z,7.93
2023-03-18T02:54:28.982Z,7.97
2023-03-18T02:56:56.141Z,7.94
2023-03-18T02:59:23.441Z,8.03
2023-03-18T03:01:52.399Z,7.98
2023-03-18T03:04:20.510Z,7.97
2023-03-18T03:06:47.321Z,8.01
2023-03-18T03:09:16.399Z,8.01
2023-03-18T03:11:45.115Z,8.10
2023-03-18T03:14:12.187Z,8.06
2023-03-18T03:16:39.225Z,8.10
2023-03-18T03:19:06.404Z,8.09
2023-03-18T03:21:35.967Z,8.07
2023-03-18T03:24:07.670Z,8.09
2023-03-18T03:26:35.202Z,8.05
2023-03-18T03:29:02.704Z,8.04
2023-03-18T03:31:29.360Z,7.97
2023-03-18T03:33:56.487Z,8.05
2023-03-18T03:36:23.148Z,8.04
2023-03-18T03:38:50.701Z,8.01
2023-03-18T03:41:17.317Z,8.04
2023-03-18T03:43:44.863Z,8.06
2023-03-18T03:46:11.834Z,8.08
2023-03-18T03:48:39.685Z,8.10
2023-03-18T03:51:07.229Z,8.05
2023-03-18T03:53:34.384Z,8.06
2023-03-18T03:56:01.180Z,8.02
2023-03-18T03:58:28.051Z,8.12
2023-03-18T04:00:54.635Z,8.08
2023-03-18T04:03:21.686Z,8.18
2023-03-18T04:05:49.566Z,8.19
2023-03-18T04:08:16.307Z,8.14
2023-03-18T04:10:43.488Z,8.02
2023-03-18T04:13:10.420Z,8.17
2023-03-18T04:15:37.550Z,8.12
2023-03-18T04:18:07.489Z,8.12
2023-03-18T04:20:35.785Z,8.09
2023-03-18T04:23:02.932Z,8.14
2023-03-18T04:25:30.256Z,8.11
2023-03-18T04:27:57.322Z,8.06
2023-03-18T04:30:25.747Z,8.07
2023-03-18T04:32:53.212Z,8.06
2023-03-18T04:35:19.897Z,8.14
2023-03-18T04:37:46.628Z,8.22
2023-03-18T04:40:13.378Z,8.32
2023-03-18T04:42:40.027Z,8.36
2023-03-18T04:45:07.673Z,8.31
2023-03-18T04:47:35.993Z,8.33
2023-03-18T04:50:04.739Z,8.23
2023-03-18T04:52:32.086Z,8.21
2023-03-18T04:54:58.747Z,8.27
2023-03-18T04:57:26.273Z,8.31
2023-03-18T04:59:53.027Z,8.29
2023-03-18T05:02:20.080Z,8.22
2023-03-18T05:04:46.747Z,8.20
2023-03-18T05:07:15.624Z,8.24
2023-03-18T05:09:42.703Z,8.28
2023-03-18T05:12:14.887Z,8.28
2023-03-18T05:14:45.189Z,8.11
2023-03-18T05:17:15.885Z,8.23
2023-03-18T05:19:44.793Z,8.24
2023-03-18T05:22:11.897Z,8.23
2023-03-18T05:24:39.936Z,8.10
2023-03-18T05:27:06.787Z,8.17
2023-03-18T05:29:33.745Z,8.19
2023-03-18T05:32:00.550Z,8.11
2023-03-18T05:34:27.714Z,8.12
2023-03-18T05:36:54.295Z,7.98
2023-03-18T05:39:20.911Z,8.02
2023-03-18T05:41:47.623Z,7.98
2023-03-18T05:44:14.874Z,8.16
2023-03-18T05:46:42.029Z,8.13
2023-03-18T05:49:09.029Z,8.16
2023-03-18T05:51:35.791Z,8.14
2023-03-18T05:54:02.428Z,8.05
2023-03-18T05:56:29.055Z,7.99
2023-03-18T05:58:55.658Z,7.95
2023-03-18T06:01:22.312Z,8.09
2023-03-18T06:03:48.943Z,8.04
2023-03-18T06:06:15.567Z,7.96
2023-03-18T06:08:42.184Z,7.98
2023-03-18T06:11:08.949Z,7.95
2023-03-18T06:13:35.694Z,7.94
2023-03-18T06:16:03.956Z,7.76
2023-03-18T06:18:30.665Z,7.77
2023-03-18T06:20:57.514Z,7.89
2023-03-18T06:23:24.057Z,7.91
2023-03-18T06:25:51.225Z,7.95
2023-03-18T06:28:18.838Z,7.90
2023-03-18T06:30:45.480Z,8.01
2023-03-18T06:33:12.293Z,7.98
2023-03-18T06:35:39.002Z,7.89
2023-03-18T06:38:05.883Z,7.99
2023-03-18T06:40:32.523Z,8.01
2023-03-18T06:42:59.319Z,8.16
2023-03-18T06:45:26.181Z,8.25
2023-03-18T06:47:52.948Z,8.24
2023-03-18T06:50:20.826Z,8.21
2023-03-18T06:52:48.209Z,8.29
2023-03-18T06:55:15.220Z,8.31
2023-03-18T06:57:41.869Z,8.41
2023-03-18T07:00:10.603Z,8.42
2023-03-18T07:02:39.505Z,8.42
2023-03-18T07:05:07.961Z,8.45
2023-03-18T07:07:34.938Z,8.60
2023-03-18T07:10:02.529Z,8.74
2023-03-18T07:12:29.124Z,8.81
2023-03-18T07:14:55.736Z,8.89
2023-03-18T07:17:23.068Z,9.00
2023-03-18T07:19:49.670Z,9.15
2023-03-18T07:22:17.545Z,9.37
2023-03-18T07:24:45.564Z,9.50
2023-03-18T07:27:13.631Z,9.60
2023-03-18T07:29:40.641Z,9.65
2023-03-18T07:32:07.296Z,9.72
2023-03-18T07:34:34.157Z,9.85
2023-03-18T07:37:01.268Z,9.85
2023-03-18T07:39:28.296Z,9.88
2023-03-18T07:41:55.034Z,9.94
2023-03-18T07:44:22.079Z,9.99
2023-03-18T07:46:48.855Z,9.93
2023-03-18T07:49:15.953Z,10.08
2023-03-18T07:51:42.810Z,10.22
2023-03-18T07:54:09.664Z,10.27
2023-03-18T07:56:36.282Z,10.36
2023-03-18T07:59:02.920Z,10.42
2023-03-18T08:01:29.648Z,10.50
2023-03-18T08:03:58.114Z,10.53
2023-03-18T08:06:25.494Z,10.54
2023-03-18T08:08:52.503Z,10.65
2023-03-18T08:11:19.621Z,10.73
2023-03-18T08:13:49.124Z,10.82
2023-03-18T08:16:16.353Z,10.84
2023-03-18T08:18:43.278Z,10.87
2023-03-18T08:21:09.955Z,10.93
2023-03-18T08:23:37.349Z,11.06
2023-03-18T08:26:04.666Z,11.28
2023-03-18T08:28:31.419Z,11.50
2023-03-18T08:30:59.408Z,11.75
2023-03-18T08:33:27.317Z,12.01
2023-03-18T08:35:56.134Z,12.18
2023-03-18T08:38:24.093Z,12.23
2023-03-18T08:40:50.996Z,12.41
2023-03-18T08:43:18.110Z,12.58
2023-03-18T08:45:45.255Z,12.74
2023-03-18T08:48:11.974Z,12.96
2023-03-18T08:50:39.005Z,13.14
2023-03-18T08:53:06.016Z,13.23
2023-03-18T08:55:35.386Z,13.41
2023-03-18T08:58:05.669Z,13.54
2023-03-18T09:00:34.160Z,13.66
2023-03-18T09:03:00.939Z,13.81
2023-03-18T09:05:27.615Z,14.04
2023-03-18T09:07:54.566Z,14.18
2023-03-18T09:10:21.631Z,14.38
2023-03-18T09:12:50.067Z,14.48
2023-03-18T09:15:17.707Z,14.72
2023-03-18T09:17:59.938Z,14.84
2023-03-18T09:20:30.782Z,15.00
2023-03-18T09:22:57.695Z,15.10
2023-03-18T09:25:24.877Z,15.28
2023-03-18T09:27:52.057Z,15.26
2023-03-18T09:30:18.997Z,15.31
2023-03-18T09:32:45.792Z,15.30
2023-03-18T09:35:13.424Z,15.43
2023-03-18T09:37:40.672Z,15.57
2023-03-18T09:40:08.556Z,15.68
2023-03-18T09:42:51.718Z,15.82
2023-03-18T09:45:26.633Z,15.81
2023-03-18T09:48:32.002Z,15.90
2023-03-18T09:51:24.152Z,16.01
2023-03-18T09:54:04.500Z,16.15
2023-03-18T09:56:34.897Z,16.33
2023-03-18T09:59:12.697Z,16.36
2023-03-18T10:01:40.017Z,16.47
2023-03-18T10:04:25.918Z,16.32
2023-03-18T10:07:03.179Z,16.10
2023-03-18T10:09:48.560Z,16.13
2023-03-18T10:12:20.404Z,16.13
2023-03-18T10:14:52.760Z,15.98
2023-03-18T10:17:22.952Z,15.92
2023-03-18T10:19:53.652Z,15.82
2023-03-18T10:22:50.876Z,15.88
2023-03-18T10:25:36.541Z,16.02
2023-03-18T10:28:49.847Z,16.12
2023-03-18T10:31:55.661Z,16.10
2023-03-18T10:34:27.680Z,16.20
2023-03-18T10:37:20.450Z,16.32
2023-03-18T10:39:49.627Z,16.52
2023-03-18T10:42:22.087Z,16.65
2023-03-18T10:44:50.506Z,16.76
2023-03-18T10:47:26.904Z,16.92
2023-03-18T10:50:18.218Z,17.06
2023-03-18T10:52:53.669Z,17.22
2023-03-18T10:55:23.295Z,17.35
2023-03-18T10:57:50.056Z,17.32
2023-03-18T11:00:27.377Z,17.25
2023-03-18T11:02:55.501Z,17.23
2023-03-18T11:05:27.736Z,17.21
2023-03-18T11:08:06.606Z,17.31
2023-03-18T11:10:36.131Z,17.25
2023-03-18T11:13:03.923Z,17.15
2023-03-18T11:15:37.153Z,17.18
2023-03-18T11:18:04.302Z,17.16
2023-03-18T11:20:45.804Z,17.27
2023-03-18T11:23:18.685Z,17.40
2023-03-18T11:25:46.448Z,17.59
2023-03-18T11:28:26.767Z,17.61
2023-03-18T11:30:57.130Z,17.82
2023-03-18T11:33:26.185Z,17.85
2023-03-18T11:35:55.152Z,18.02
2023-03-18T11:38:33.378Z,18.04
2023-03-18T11:41:09.067Z,18.21
2023-03-18T11:43:38.457Z,18.16
2023-03-18T11:46:09.922Z,18.25
2023-03-18T11:48:38.673Z,18.31
2023-03-18T11:52:02.995Z,18.37
2023-03-18T11:55:16.361Z,18.36
2023-03-18T11:58:29.902Z,18.43
2023-03-18T12:01:13.838Z,18.50
2023-03-18T12:04:05.049Z,18.60
2023-03-18T12:09:38.628Z,18.49
2023-03-18T12:12:22.061Z,18.53
2023-03-18T12:15:01.478Z,18.56
2023-03-18T12:17:59.783Z,18.74
2023-03-18T12:20:53.542Z,18.66
2023-03-18T12:23:50.033Z,18.77
2023-03-18T12:26:41.493Z,18.87
2023-03-18T12:30:01.441Z,18.89
2023-03-18T12:32:36.113Z,18.78
2023-03-18T12:35:36.542Z,18.73
2023-03-18T12:38:52.144Z,18.68
2023-03-18T12:41:19.704Z,18.70
2023-03-18T12:44:22.089Z,18.61
2023-03-18T12:47:05.091Z,18.70
2023-03-18T12:50:22.112Z,19.05
2023-03-18T12:52:54.313Z,19.10
2023-03-18T12:55:29.767Z,19.21
2023-03-18T12:58:02.003Z,19.40
2023-03-18T13:00:57.554Z,19.47
2023-03-18T13:03:48.926Z,19.43
2023-03-18T13:06:29.377Z,19.48
2023-03-18T13:09:39.812Z,19.45
2023-03-18T13:12:27.008Z,19.46
2023-03-18T13:15:08.786Z,19.49
2023-03-18T13:17:39.052Z,19.58
2023-03-18T13:20:23.916Z,19.51
2023-03-18T13:23:30.970Z,19.52
2023-03-18T13:26:15.469Z,19.59
2023-03-18T13:28:44.321Z,19.46
2023-03-18T13:31:45.111Z,19.33
2023-03-18T13:38:24.400Z,19.14
2023-03-18T13:41:07.625Z,19.04
2023-03-18T13:43:35.791Z,19.09
2023-03-18T13:46:02.804Z,19.12
2023-03-18T13:48:32.381Z,19.10
2023-03-18T13:51:14.758Z,18.94
2023-03-18T13:53:44.208Z,18.92
2023-03-18T13:56:46.071Z,18.80
2023-03-18T13:59:50.093Z,18.84
2023-03-18T14:03:07.224Z,18.95
2023-03-18T14:05:40.484Z,18.98
2023-03-18T14:08:58.703Z,18.88
2023-03-18T14:11:34.186Z,18.82
2023-03-18T14:14:09.193Z,18.86
2023-03-18T14:16:56.607Z,18.75
2023-03-18T14:19:28.859Z,18.80
2023-03-18T14:22:31.727Z,18.72
2023-03-18T14:25:37.513Z,18.87
2023-03-18T14:28:22.876Z,18.76
2023-03-18T14:31:12.272Z,18.84
2023-03-18T14:34:12.279Z,18.96
2023-03-18T14:39:53.495Z,18.93
2023-03-18T14:42:44.226Z,18.78
2023-03-18T14:45:25.646Z,18.61
2023-03-18T14:47:56.852Z,18.51
2023-03-18T14:50:35.796Z,18.46
2023-03-18T14:53:22.975Z,18.41
2023-03-18T14:55:51.822Z,18.47
2023-03-18T14:58:22.340Z,18.42
2023-03-18T15:00:52.258Z,18.45
2023-03-18T15:03:27.574Z,18.50
2023-03-18T15:06:02.658Z,18.49
2023-03-18T15:08:46.778Z,18.51
2023-03-18T15:11:15.058Z,18.46
2023-03-18T15:13:42.681Z,18.48
2023-03-18T15:16:14.517Z,18.46
2023-03-18T15:18:41.538Z,18.32
2023-03-18T15:21:13.388Z,18.42
2023-03-18T15:23:49.579Z,18.36
2023-03-18T15:26:24.871Z,18.25
2023-03-18T15:28:56.872Z,18.22
2023-03-18T15:31:32.142Z,18.27
2023-03-18T15:34:19.518Z,18.17
2023-03-18T15:36:55.670Z,18.09
2023-03-18T15:39:49.061Z,18.06
2023-03-18T15:42:18.451Z,17.99
2023-03-18T15:44:50.320Z,18.01
2023-03-18T15:47:33.181Z,18.00
2023-03-18T15:50:31.110Z,17.96
2023-03-18T15:53:04.460Z,17.96
2023-03-18T15:55:35.315Z,17.88
2023-03-18T15:58:04.947Z,17.83
2023-03-18T16:00:34.285Z,17.85
2023-03-18T16:03:01.494Z,17.84
2023-03-18T16:05:29.403Z,17.90
2023-03-18T16:07:58.582Z,17.86
2023-03-18T16:10:31.115Z,17.81
2023-03-18T16:13:01.311Z,17.94
2023-03-18T16:15:28.346Z,17.86
2023-03-18T16:17:58.777Z,17.85
2023-03-18T16:20:30.916Z,17.76
2023-03-18T16:22:59.990Z,17.73
2023-03-18T16:25:27.202Z,17.70
2023-03-18T16:27:57.024Z,17.80
2023-03-18T16:30:28.250Z,17.75
2023-03-18T16:32:56.543Z,17.62
2023-03-18T16:35:26.894Z,17.49
2023-03-18T16:37:53.949Z,17.44
2023-03-18T16:40:27.723Z,17.41
2023-03-18T16:42:56.770Z,17.37
2023-03-18T16:45:33.570Z,17.31
2023-03-18T16:48:08.395Z,17.22
2023-03-18T16:50:42.029Z,17.14
2023-03-18T16:53:22.431Z,16.98
2023-03-18T16:55:57.570Z,16.92
2023-03-18T16:58:45.673Z,16.88
2023-03-18T17:01:26.087Z,16.83
2023-03-18T17:04:04.392Z,16.80
2023-03-18T17:06:41.414Z,16.64
2023-03-18T17:09:11.679Z,16.50
2023-03-18T17:11:39.193Z,16.39
2023-03-18T17:14:08.164Z,16.30
2023-03-18T17:16:36.743Z,16.12
2023-03-18T17:19:04.521Z,15.92
2023-03-18T17:21:32.193Z,16.02
2023-03-18T17:23:59.166Z,15.97
2023-03-18T17:26:43.035Z,15.80
2023-03-18T17:29:25.823Z,15.66
2023-03-18T17:31:54.217Z,15.47
2023-03-18T17:34:23.943Z,15.30
2023-03-18T17:36:51.609Z,15.22
2023-03-18T17:39:19.828Z,15.13
2023-03-18T17:41:46.594Z,15.04
2023-03-18T17:44:35.589Z,14.94
2023-03-18T17:47:03.408Z,14.85
2023-03-18T17:49:31.672Z,14.69
2023-03-18T17:52:04.558Z,14.36
2023-03-18T17:54:38.441Z,14.22
2023-03-18T17:57:13.676Z,14.38
2023-03-18T17:59:42.557Z,14.37
2023-03-18T18:02:18.672Z,14.28
2023-03-18T18:04:48.131Z,14.23
2023-03-18T18:07:27.802Z,14.28
2023-03-18T18:09:59.070Z,14.04
2023-03-18T18:12:30.554Z,14.02
2023-03-18T18:15:05.058Z,14.05
2023-03-18T18:17:43.249Z,13.91
2023-03-18T18:20:23.292Z,13.80
2023-03-18T18:22:57.058Z,13.76
2023-03-18T18:25:26.927Z,13.69
2023-03-18T18:27:55.374Z,13.60
2023-03-18T18:30:33.400Z,13.58
2023-03-18T18:33:04.188Z,13.57
2023-03-18T18:35:32.871Z,13.44
2023-03-18T18:38:00.102Z,13.49
2023-03-18T18:40:26.852Z,13.50
2023-03-18T18:42:54.451Z,13.43
2023-03-18T18:45:22.059Z,13.34
2023-03-18T18:47:49.593Z,13.15
2023-03-18T18:50:19.814Z,13.13
2023-03-18T18:52:47.451Z,13.07
2023-03-18T18:55:14.294Z,13.08
2023-03-18T18:57:43.270Z,12.94
2023-03-18T19:00:22.588Z,12.93
2023-03-18T19:02:57.394Z,12.91
2023-03-18T19:05:24.218Z,12.88
2023-03-18T19:07:51.709Z,12.79
2023-03-18T19:10:18.966Z,12.79
2023-03-18T19:12:45.736Z,12.91
2023-03-18T19:15:15.482Z,12.85
2023-03-18T19:17:43.580Z,12.83
2023-03-18T19:20:39.789Z,12.60
2023-03-18T19:23:14.668Z,12.50
2023-03-18T19:25:42.266Z,12.47
2023-03-18T19:28:15.017Z,12.54
2023-03-18T19:30:43.039Z,12.40
2023-03-18T19:33:17.259Z,12.29
2023-03-18T19:35:44.201Z,12.35
2023-03-18T19:38:16.810Z,12.37
2023-03-18T19:40:43.575Z,12.08
2023-03-18T19:43:16.240Z,12.11
2023-03-18T19:45:50.652Z,11.98
2023-03-18T19:48:21.221Z,11.84
2023-03-18T19:50:48.595Z,11.78
2023-03-18T19:53:17.287Z,11.77
2023-03-18T19:55:45.244Z,11.98
2023-03-18T19:58:23.220Z,11.83
2023-03-18T20:00:51.373Z,11.87
2023-03-18T20:03:20.418Z,11.72
2023-03-18T20:05:47.758Z,11.62
2023-03-18T20:08:14.912Z,11.67
2023-03-18T20:10:42.731Z,11.57
2023-03-18T20:13:17.064Z,11.57
2023-03-18T20:15:43.863Z,11.64
2023-03-18T20:18:17.025Z,11.61
2023-03-18T20:20:52.967Z,11.60
2023-03-18T20:23:23.184Z,11.61
2023-03-18T20:25:54.899Z,11.45
2023-03-18T20:28:29.083Z,11.44
2023-03-18T20:30:57.558Z,11.48
2023-03-18T20:33:26.519Z,11.55
2023-03-18T20:35:54.161Z,11.55
2023-03-18T20:38:39.737Z,11.71
2023-03-18T20:41:06.862Z,11.75
2023-03-18T20:43:34.192Z,11.41
2023-03-18T20:46:02.146Z,11.32
2023-03-18T20:48:28.897Z,11.53
2023-03-18T20:50:55.876Z,11.32
2023-03-18T20:53:24.439Z,11.34
2023-03-18T20:55:52.131Z,11.47
2023-03-18T20:58:28.321Z,11.31
2023-03-18T21:00:55.412Z,11.20
2023-03-18T21:03:33.902Z,11.21
2023-03-18T21:06:03.641Z,11.08
2023-03-18T21:08:32.322Z,10.91
2023-03-18T21:11:02.096Z,10.92
2023-03-18T21:13:39.348Z,10.90
2023-03-18T21:16:16.930Z,10.91
2023-03-18T21:18:46.029Z,10.91
2023-03-18T21:21:51.315Z,10.87
2023-03-18T21:24:20.430Z,10.87
2023-03-18T21:27:03.168Z,10.80
2023-03-18T21:29:30.782Z,10.80
2023-03-18T21:31:57.483Z,10.72
2023-03-18T21:34:24.122Z,10.78
2023-03-18T21:36:51.413Z,10.80
2023-03-18T21:39:18.063Z,10.88
2023-03-18T21:41:45.093Z,10.86
2023-03-18T21:44:12.601Z,10.77
2023-03-18T21:46:39.328Z,10.82
2023-03-18T21:49:07.591Z,10.73
2023-03-18T21:51:39.690Z,10.80
2023-03-18T21:54:11.710Z,10.74
2023-03-18T21:56:38.359Z,10.43
2023-03-18T21:59:05.032Z,10.58
2023-03-18T22:01:32.534Z,10.64
2023-03-18T22:03:59.494Z,10.67
2023-03-18T22:06:26.180Z,10.74
2023-03-18T22:08:52.947Z,10.62
2023-03-18T22:11:22.206Z,10.63
2023-03-18T22:13:49.733Z,10.65
2023-03-18T22:16:17.874Z,10.60
2023-03-18T22:18:46.094Z,10.54
2023-03-18T22:21:31.184Z,10.61
2023-03-18T22:24:00.199Z,10.66
2023-03-18T22:26:26.949Z,10.55
2023-03-18T22:28:53.569Z,10.68
2023-03-18T22:31:25.579Z,10.72
2023-03-18T22:33:53.952Z,10.79
2023-03-18T22:36:25.621Z,10.75
2023-03-18T22:38:52.400Z,10.81
2023-03-18T22:41:22.165Z,10.70
2023-03-18T22:43:49.477Z,10.53
2023-03-18T22:46:16.318Z,10.51
2023-03-18T22:48:43.704Z,10.54
2023-03-18T22:51:23.945Z,10.50
2023-03-18T22:53:52.289Z,10.50
2023-03-18T22:56:19.084Z,10.44
2023-03-18T22:58:45.886Z,10.38
2023-03-18T23:01:16.801Z,10.31
2023-03-18T23:03:47.808Z,10.39
2023-03-18T23:06:20.274Z,10.30
2023-03-18T23:08:47.232Z,10.25
2023-03-18T23:11:15.029Z,10.23
2023-03-18T23:13:52.500Z,10.16
2023-03-18T23:16:21.358Z,9.97
2023-03-18T23:18:48.722Z,9.90
2023-03-18T23:21:23.761Z,9.93
2023-03-18T23:23:51.318Z,9.94
2023-03-18T23:26:18.274Z,9.96
2023-03-18T23:28:45.564Z,9.81
2023-03-18T23:31:15.245Z,9.83
2023-03-18T23:33:42.326Z,9.75
2023-03-18T23:36:09.490Z,9.93
2023-03-18T23:38:38.116Z,9.85
2023-03-18T23:41:05.384Z,9.74
2023-03-18T23:43:31.999Z,9.83
2023-03-18T23:45:58.737Z,9.91
2023-03-18T23:48:25.873Z,10.04
2023-03-18T23:50:52.558Z,9.68
2023-03-18T23:53:19.527Z,9.70
2023-03-18T23:55:48.671Z,9.64
2023-03-18T23:58:15.724Z,9.74
